createdAt,value
2023-04-09T00:03:25.875Z,35.42
2023-04-09T00:07:28.623Z,50.63
2023-04-09T00:11:30.061Z,31.38
2023-04-09T00:15:32.028Z,45.30
2023-04-09T00:19:33.550Z,49.55
2023-04-09T00:23:36.290Z,31.83
2023-04-09T00:27:37.695Z,56.13
2023-04-09T00:31:39.201Z,34.85
2023-04-09T00:35:40.687Z,37.58
2023-04-09T00:39:43.439Z,34.92
2023-04-09T00:43:44.847Z,32.70
2023-04-09T00:47:46.542Z,39.17
2023-04-09T00:51:48.258Z,33.35
2023-04-09T00:55:52.166Z,32.97
2023-04-09T00:59:53.714Z,37.38
2023-04-09T01:03:55.384Z,36.55
2023-04-09T01:08:03.722Z,32.38
2023-04-09T01:12:14.495Z,34.08
2023-04-09T01:16:19.085Z,36.40
2023-04-09T01:20:28.819Z,34.13
2023-04-09T01:24:40.074Z,36.60
2023-04-09T01:28:46.461Z,35.78
2023-04-09T01:32:48.137Z,33.70
2023-04-09T01:36:54.178Z,32.00
2023-04-09T01:40:57.341Z,37.25
2023-04-09T01:45:01.294Z,38.97
2023-04-09T01:49:02.905Z,37.20
2023-04-09T01:53:04.363Z,51.33
2023-04-09T01:57:05.801Z,48.10
2023-04-09T02:01:12.630Z,33.15
2023-04-09T02:05:17.035Z,29.40
2023-04-09T02:09:21.305Z,35.53
2023-04-09T02:13:23.534Z,53.38
2023-04-09T02:17:26.282Z,34.13
2023-04-09T02:21:28.272Z,36.10
2023-04-09T02:25:29.885Z,63.90
2023-04-09T02:29:31.591Z,32.92
2023-04-09T02:33:34.336Z,38.80
2023-04-09T02:37:35.760Z,36.83
2023-04-09T02:41:37.192Z,38.05
2023-04-09T02:45:38.640Z,40.53
2023-04-09T02:49:41.378Z,35.47
2023-04-09T02:53:42.850Z,38.08
2023-04-09T02:57:44.262Z,34.80
2023-04-09T03:01:45.797Z,40.70
2023-04-09T03:05:48.682Z,34.20
2023-04-09T03:09:50.073Z,40.25
2023-04-09T03:13:51.499Z,38.80
2023-04-09T03:17:52.991Z,34.63
2023-04-09T03:21:55.810Z,33.55
2023-04-09T03:26:01.634Z,35.03
2023-04-09T03:30:03.431Z,40.03
2023-04-09T03:34:04.830Z,33.75
2023-04-09T03:38:07.572Z,36.70
2023-04-09T03:42:09.005Z,40.22
2023-04-09T03:46:13.916Z,39.47
2023-04-09T03:50:15.349Z,35.50
2023-04-09T03:54:18.098Z,39.17
2023-04-09T03:58:19.530Z,59.95
2023-04-09T04:02:21.225Z,36.85
2023-04-09T04:06:22.847Z,36.25
2023-04-09T04:10:25.691Z,37.40
2023-04-09T04:14:27.102Z,37.47
2023-04-09T04:18:28.509Z,36.33
2023-04-09T04:22:29.910Z,32.50
2023-04-09T04:26:32.670Z,44.40
2023-04-09T04:30:34.170Z,31.35
2023-04-09T04:34:35.574Z,37.67
2023-04-09T04:38:37.820Z,38.83
2023-04-09T04:42:40.555Z,32.38
2023-04-09T04:46:42.134Z,38.33
2023-04-09T04:50:43.557Z,53.88
2023-04-09T04:54:45.011Z,36.53
2023-04-09T04:58:47.844Z,34.80
2023-04-09T05:02:49.365Z,29.25
2023-04-09T05:06:50.868Z,31.60
2023-04-09T05:10:54.590Z,33.75
2023-04-09T05:14:57.327Z,28.60
2023-04-09T05:18:58.719Z,32.78
2023-04-09T05:23:00.211Z,35.63
2023-04-09T05:27:01.621Z,36.15
2023-04-09T05:31:04.541Z,33.42
2023-04-09T05:35:06.412Z,39.72
2023-04-09T05:39:07.852Z,41.58
2023-04-09T05:43:10.268Z,42.83
2023-04-09T05:47:13.024Z,43.95
2023-04-09T05:51:14.484Z,41.00
2023-04-09T05:55:15.932Z,41.10
2023-04-09T05:59:17.340Z,42.92
2023-04-09T06:03:20.229Z,43.30
2023-04-09T06:07:21.827Z,43.08
2023-04-09T06:11:23.265Z,41.25
2023-04-09T06:15:24.691Z,47.67
2023-04-09T06:19:27.590Z,42.60
2023-04-09T06:23:28.994Z,48.00
2023-04-09T06:27:30.399Z,41.78
2023-04-09T06:31:31.870Z,42.08
2023-04-09T06:35:34.728Z,42.88
2023-04-09T06:39:37.428Z,47.72
2023-04-09T06:43:40.169Z,46.47
2023-04-09T06:47:41.617Z,41.50
2023-04-09T06:51:44.380Z,43.03
2023-04-09T06:55:46.003Z,48.13
2023-04-09T06:59:47.455Z,50.83
2023-04-09T07:03:48.923Z,47.30
2023-04-09T07:07:51.726Z,52.95
2023-04-09T07:11:53.142Z,52.97
2023-04-09T07:15:54.561Z,63.72
2023-04-09T07:19:56.093Z,48.15
2023-04-09T07:23:58.848Z,59.17
2023-04-09T07:28:00.549Z,45.63
2023-04-09T07:32:02.045Z,44.80
2023-04-09T07:36:03.971Z,61.55
2023-04-09T07:40:08.300Z,43.75
2023-04-09T07:44:09.859Z,34.85
2023-04-09T07:48:11.307Z,34.90
2023-04-09T07:52:12.742Z,42.90
2023-04-09T07:56:15.504Z,32.28
2023-04-09T08:00:17.894Z,36.28
2023-04-09T08:04:19.678Z,40.13
2023-04-09T08:08:21.298Z,55.00
2023-04-09T08:12:24.078Z,39.60
2023-04-09T08:16:25.567Z,30.05
2023-04-09T08:20:27.015Z,34.28
2023-04-09T08:24:28.518Z,40.42
2023-04-09T08:28:31.269Z,29.63
2023-04-09T08:32:32.722Z,32.83
2023-04-09T08:36:34.375Z,37.05
2023-04-09T08:40:36.186Z,31.27
2023-04-09T08:44:38.993Z,31.40
2023-04-09T08:48:41.735Z,33.22
2023-04-09T08:52:46.469Z,33.53
2023-04-09T08:56:48.039Z,61.60
2023-04-09T09:00:50.798Z,36.55
2023-04-09T09:04:52.202Z,32.53
2023-04-09T09:09:01.924Z,34.42
2023-04-09T09:13:16.358Z,33.85
2023-04-09T09:17:19.428Z,33.80
2023-04-09T09:21:21.262Z,32.58
2023-04-09T09:25:23.243Z,31.13
2023-04-09T09:29:24.834Z,29.95
2023-04-09T09:33:33.540Z,28.33
2023-04-09T09:37:34.999Z,27.83
2023-04-09T09:41:36.742Z,29.85
2023-04-09T09:45:38.725Z,30.25
2023-04-09T09:49:41.473Z,32.83
2023-04-09T09:53:44.452Z,29.00
2023-04-09T09:57:47.762Z,35.28
2023-04-09T10:01:55.090Z,34.78
2023-04-09T10:05:58.804Z,30.13
2023-04-09T10:10:02.340Z,35.88
2023-04-09T10:14:04.603Z,32.60
2023-04-09T10:18:06.159Z,34.92
2023-04-09T10:22:11.696Z,34.58
2023-04-09T10:26:13.112Z,31.40
2023-04-09T10:30:33.363Z,42.83
2023-04-09T10:34:36.383Z,30.60
2023-04-09T10:38:40.243Z,30.10
2023-04-09T10:42:42.604Z,29.35
2023-04-09T10:46:45.506Z,27.42
2023-04-09T10:50:50.790Z,34.03
2023-04-09T10:54:53.549Z,31.52
2023-04-09T10:58:54.956Z,31.25
2023-04-09T11:03:10.629Z,28.30
2023-04-09T11:07:15.336Z,28.25
2023-04-09T11:11:18.109Z,27.17
2023-04-09T11:15:20.409Z,35.33
2023-04-09T11:19:21.875Z,29.08
2023-04-09T11:23:24.194Z,26.52
2023-04-09T11:27:27.017Z,25.83
2023-04-09T11:31:28.452Z,27.42
2023-04-09T11:35:29.913Z,25.27
2023-04-09T11:39:31.355Z,27.42
2023-04-09T11:43:36.095Z,26.42
2023-04-09T11:47:39.450Z,29.08
2023-04-09T11:51:41.047Z,43.03
2023-04-09T11:55:46.677Z,31.75
2023-04-09T11:59:49.498Z,31.00
2023-04-09T12:03:52.769Z,36.17
2023-04-09T12:07:58.013Z,29.30
2023-04-09T12:11:59.462Z,29.33
2023-04-09T12:16:02.217Z,30.98
2023-04-09T12:20:04.114Z,31.52
2023-04-09T12:24:05.639Z,30.95
2023-04-09T12:28:08.632Z,36.35
2023-04-09T12:32:11.451Z,28.83
2023-04-09T12:36:12.968Z,28.58
2023-04-09T12:40:14.801Z,28.45
2023-04-09T12:44:16.209Z,27.08
2023-04-09T12:48:18.936Z,26.05
2023-04-09T12:52:20.353Z,25.35
2023-04-09T12:56:21.746Z,28.05
2023-04-09T13:00:23.238Z,25.23
2023-04-09T13:04:26.116Z,25.40
2023-04-09T13:08:27.635Z,37.65
2023-04-09T13:12:29.149Z,25.15
2023-04-09T13:16:30.555Z,24.25
2023-04-09T13:20:33.327Z,22.00
2023-04-09T13:24:34.844Z,22.90
2023-04-09T13:28:36.288Z,25.10
2023-04-09T13:32:38.221Z,27.35
2023-04-09T13:36:40.964Z,20.73
2023-04-09T13:40:42.399Z,20.73
2023-04-09T13:44:43.963Z,20.70
2023-04-09T13:48:45.359Z,25.65
2023-04-09T13:52:48.119Z,20.70
2023-04-09T13:56:49.514Z,22.77
2023-04-09T14:00:50.919Z,21.63
2023-04-09T14:04:52.330Z,20.77
2023-04-09T14:08:55.438Z,20.65
2023-04-09T14:12:56.966Z,20.25
2023-04-09T14:16:58.391Z,21.40
2023-04-09T14:20:59.817Z,23.73
2023-04-09T14:25:02.574Z,20.25
2023-04-09T14:29:04.038Z,20.63
2023-04-09T14:33:05.475Z,18.92
2023-04-09T14:37:07.914Z,17.88
2023-04-09T14:41:10.668Z,21.85
2023-04-09T14:45:12.084Z,21.48
2023-04-09T14:49:13.520Z,37.10
2023-04-09T14:53:14.943Z,24.33
2023-04-09T14:57:17.685Z,20.75
2023-04-09T15:01:19.304Z,22.58
2023-04-09T15:05:20.896Z,20.67
2023-04-09T15:09:22.316Z,20.80
2023-04-09T15:13:25.165Z,23.73
2023-04-09T15:17:26.833Z,23.15
2023-04-09T15:21:28.361Z,35.50
2023-04-09T15:25:29.810Z,27.55
2023-04-09T15:29:33.462Z,19.98
2023-04-09T15:33:35.035Z,20.50
2023-04-09T15:37:36.467Z,19.35
2023-04-09T15:41:38.182Z,22.88
2023-04-09T15:45:40.946Z,22.30
2023-04-09T15:49:42.436Z,25.27
2023-04-09T15:53:43.893Z,23.73
2023-04-09T15:57:45.332Z,25.05
2023-04-09T16:01:48.155Z,28.52
2023-04-09T16:05:49.606Z,23.92
2023-04-09T16:09:51.037Z,51.75
2023-04-09T16:13:52.689Z,35.25
2023-04-09T16:17:55.617Z,26.00
2023-04-09T16:21:57.091Z,23.75
2023-04-09T16:25:58.586Z,22.70
2023-04-09T16:30:00.089Z,20.45
2023-04-09T16:34:03.060Z,22.65
2023-04-09T16:38:05.680Z,24.65
2023-04-09T16:42:07.107Z,22.60
2023-04-09T16:46:08.624Z,21.40
2023-04-09T16:50:11.606Z,21.90
2023-04-09T16:54:13.151Z,21.42
2023-04-09T16:58:14.579Z,22.08
2023-04-09T17:02:16.050Z,23.88
2023-04-09T17:06:19.398Z,20.80
2023-04-09T17:10:20.855Z,22.42
2023-04-09T17:14:22.336Z,22.38
2023-04-09T17:18:24.056Z,21.38
2023-04-09T17:22:26.913Z,26.08
2023-04-09T17:26:28.649Z,22.17
2023-04-09T17:30:31.047Z,20.65
2023-04-09T17:34:32.529Z,19.50
2023-04-09T17:38:35.307Z,35.78
2023-04-09T17:42:36.723Z,20.58
2023-04-09T17:46:38.312Z,22.48
2023-04-09T17:50:39.815Z,25.40
2023-04-09T17:54:44.051Z,20.17
2023-04-09T17:58:46.682Z,26.02
2023-04-09T18:02:51.349Z,20.73
2023-04-09T18:06:54.200Z,21.30
2023-04-09T18:11:11.290Z,26.52
2023-04-09T18:15:14.621Z,23.05
2023-04-09T18:19:16.032Z,23.70
2023-04-09T18:23:17.449Z,25.90
2023-04-09T18:27:20.413Z,24.10
2023-04-09T18:31:21.846Z,41.22
2023-04-09T18:35:23.278Z,22.02
2023-04-09T18:39:24.746Z,26.98
2023-04-09T18:43:27.577Z,30.60
2023-04-09T18:47:29.457Z,33.10
2023-04-09T18:51:31.151Z,28.30
2023-04-09T18:55:33.060Z,31.30
2023-04-09T18:59:35.868Z,25.67
2023-04-09T19:03:37.469Z,33.58
2023-04-09T19:07:39.033Z,29.83
2023-04-09T19:11:40.435Z,27.75
2023-04-09T19:15:43.159Z,28.58
2023-04-09T19:19:44.628Z,30.02
2023-04-09T19:23:46.035Z,29.63
2023-04-09T19:27:47.475Z,30.88
2023-04-09T19:31:50.293Z,31.48
2023-04-09T19:35:52.702Z,52.20
2023-04-09T19:39:54.167Z,31.25
2023-04-09T19:43:55.739Z,34.28
2023-04-09T19:47:58.641Z,32.38
2023-04-09T19:52:00.107Z,34.75
2023-04-09T19:56:01.659Z,34.20
2023-04-09T20:00:03.502Z,29.90
2023-04-09T20:04:06.278Z,35.95
2023-04-09T20:08:10.009Z,34.38
2023-04-09T20:16:15.636Z,32.50
2023-04-09T20:20:18.661Z,32.08
2023-04-09T20:24:20.103Z,47.30
2023-04-09T20:28:21.636Z,33.78
2023-04-09T20:32:23.126Z,30.08
2023-04-09T20:36:25.893Z,27.80
2023-04-09T20:40:27.394Z,30.35
2023-04-09T20:44:28.815Z,33.83
2023-04-09T20:48:30.330Z,33.83
2023-04-09T20:52:33.106Z,29.40
2023-04-09T20:56:34.571Z,29.40
2023-04-09T21:00:35.979Z,28.60
2023-04-09T21:04:37.389Z,47.00
2023-04-09T21:08:40.232Z,30.55
2023-04-09T21:12:41.652Z,35.15
2023-04-09T21:16:43.103Z,49.20
2023-04-09T21:20:45.877Z,45.08
2023-04-09T21:24:51.257Z,37.20
2023-04-09T21:28:53.000Z,37.70
2023-04-09T21:32:54.639Z,38.13
2023-04-09T21:36:56.133Z,40.80
2023-04-09T21:40:58.899Z,36.58
2023-04-09T21:45:00.480Z,35.95
2023-04-09T21:49:01.989Z,30.05
2023-04-09T21:53:03.415Z,31.38
2023-04-09T21:57:06.165Z,27.75
2023-04-09T22:01:15.628Z,30.25
2023-04-09T22:05:23.949Z,36.67
2023-04-09T22:09:25.440Z,38.65
2023-04-09T22:13:28.166Z,36.92
2023-04-09T22:17:29.606Z,36.95
2023-04-09T22:21:31.043Z,31.42
2023-04-09T22:25:32.464Z,32.35
2023-04-09T22:29:35.258Z,31.85
2023-04-09T22:33:36.803Z,32.45
2023-04-09T22:37:38.574Z,39.65
2023-04-09T22:41:40.004Z,37.13
2023-04-09T22:45:48.963Z,36.40
2023-04-09T22:49:51.918Z,35.28
2023-04-09T22:53:53.320Z,43.70
2023-04-09T22:57:54.728Z,31.00
2023-04-09T23:01:57.540Z,35.97
2023-04-09T23:05:59.305Z,35.17
2023-04-09T23:10:01.165Z,39.58
2023-04-09T23:14:02.576Z,35.38
2023-04-09T23:18:05.421Z,37.97
2023-04-09T23:22:06.887Z,35.67
2023-04-09T23:26:08.326Z,43.67
2023-04-09T23:30:10.465Z,37.63
2023-04-09T23:34:13.237Z,40.63
2023-04-09T23:38:14.765Z,39.05
2023-04-09T23:42:16.189Z,42.20
2023-04-09T23:46:17.610Z,41.40
2023-04-09T23:50:20.474Z,43.05
2023-04-09T23:54:21.906Z,41.20
2023-04-09T23:58:23.332Z,40.63
